createdAt,value
2019-05-06T00:00:20.989Z,48.00
2019-05-06T00:02:50.388Z,47.80
2019-05-06T00:05:19.754Z,47.70
2019-05-06T00:07:54.468Z,48.20
2019-05-06T00:10:33.956Z,47.70
2019-05-06T00:13:04.590Z,47.80
2019-05-06T00:15:34.579Z,47.40
2019-05-06T00:18:05.166Z,47.60
2019-05-06T00:20:35.115Z,47.70
2019-05-06T00:23:17.995Z,47.90
2019-05-06T00:25:49.034Z,47.50
2019-05-06T00:28:25.618Z,47.60
2019-05-06T00:31:09.481Z,47.50
2019-05-06T00:33:27.759Z,48.00
2019-05-06T00:36:00.205Z,47.80
2019-05-06T00:38:28.225Z,48.10
2019-05-06T00:41:15.390Z,47.70
2019-05-06T00:43:44.787Z,47.60
2019-05-06T00:46:14.534Z,48.00
2019-05-06T00:48:44.883Z,47.70
2019-05-06T00:51:14.990Z,47.80
2019-05-06T00:53:46.490Z,47.90
2019-05-06T00:56:15.946Z,47.90
2019-05-06T00:58:45.339Z,47.80
2019-05-06T01:01:25.946Z,47.80
2019-05-06T01:03:45.884Z,47.70
2019-05-06T01:06:15.275Z,48.20
2019-05-06T01:08:44.780Z,47.60
2019-05-06T01:11:14.425Z,47.90
2019-05-06T01:13:51.493Z,48.10
2019-05-06T01:16:21.666Z,48.00
2019-05-06T01:18:51.030Z,47.70
2019-05-06T01:21:20.410Z,48.00
2019-05-06T01:23:49.874Z,47.70
2019-05-06T01:26:19.263Z,47.70
2019-05-06T01:28:48.644Z,48.00
2019-05-06T01:31:18.106Z,48.10
2019-05-06T01:33:47.490Z,48.10
2019-05-06T01:36:16.958Z,47.80
2019-05-06T01:38:50.771Z,47.90
2019-05-06T01:41:36.900Z,48.50
2019-05-06T01:44:06.355Z,47.90
2019-05-06T01:46:35.750Z,48.20
2019-05-06T01:49:05.695Z,48.10
2019-05-06T01:51:35.155Z,48.10
2019-05-06T01:54:04.594Z,48.30
2019-05-06T01:56:35.040Z,48.10
2019-05-06T01:59:04.756Z,48.40
2019-05-06T02:01:35.299Z,48.10
2019-05-06T02:04:04.691Z,48.50
2019-05-06T02:06:34.542Z,48.60
2019-05-06T02:09:08.725Z,48.10
2019-05-06T02:11:38.469Z,48.70
2019-05-06T02:14:07.859Z,48.50
2019-05-06T02:16:37.257Z,48.30
2019-05-06T02:19:06.638Z,48.60
2019-05-06T02:21:37.743Z,48.90
2019-05-06T02:24:13.506Z,48.50
2019-05-06T02:26:43.658Z,48.70
2019-05-06T02:29:34.730Z,49.00
2019-05-06T02:32:20.941Z,48.60
2019-05-06T02:34:47.219Z,48.90
2019-05-06T02:37:27.465Z,48.90
2019-05-06T02:39:56.935Z,49.00
2019-05-06T02:42:26.379Z,49.10
2019-05-06T02:44:55.765Z,49.20
2019-05-06T02:47:42.976Z,49.10
2019-05-06T02:50:14.282Z,49.10
2019-05-06T02:52:44.176Z,49.30
2019-05-06T02:55:14.961Z,49.10
2019-05-06T02:57:44.404Z,49.20
2019-05-06T03:00:18.910Z,49.40
2019-05-06T03:02:48.723Z,49.30
2019-05-06T03:05:18.319Z,49.20
2019-05-06T03:07:47.770Z,49.10
2019-05-06T03:10:17.395Z,49.50
2019-05-06T03:12:46.856Z,49.20
2019-05-06T03:15:16.954Z,49.60
2019-05-06T03:17:46.574Z,49.30
2019-05-06T03:20:32.402Z,49.50
2019-05-06T03:23:03.932Z,49.10
2019-05-06T03:25:33.724Z,49.60
2019-05-06T03:28:04.270Z,49.50
2019-05-06T03:30:36.112Z,49.70
2019-05-06T03:33:40.064Z,49.20
2019-05-06T03:35:56.432Z,49.60
2019-05-06T03:38:08.155Z,49.60
2019-05-06T03:40:41.802Z,49.90
2019-05-06T03:43:08.632Z,50.60
2019-05-06T03:45:48.554Z,50.00
2019-05-06T03:48:23.976Z,50.30
2019-05-06T03:50:55.906Z,50.10
2019-05-06T03:53:24.364Z,49.90
2019-05-06T03:55:54.693Z,50.00
2019-05-06T03:58:26.790Z,50.30
2019-05-06T04:00:57.938Z,50.10
2019-05-06T04:03:42.733Z,49.80
2019-05-06T04:05:58.536Z,49.90
2019-05-06T04:08:28.394Z,49.70
2019-05-06T04:10:58.609Z,49.70
2019-05-06T04:13:28.843Z,49.50
2019-05-06T04:16:09.589Z,48.90
2019-05-06T04:18:46.896Z,49.30
2019-05-06T04:21:18.747Z,49.30
2019-05-06T04:23:53.371Z,49.50
2019-05-06T04:26:27.271Z,49.70
2019-05-06T04:28:57.815Z,49.00
2019-05-06T04:31:27.219Z,49.10
2019-05-06T04:34:10.242Z,49.20
2019-05-06T04:36:33.453Z,49.30
2019-05-06T04:39:04.123Z,49.30
2019-05-06T04:41:34.145Z,50.00
2019-05-06T04:44:04.586Z,49.40
2019-05-06T04:46:35.084Z,49.00
2019-05-06T04:49:04.716Z,48.60
2019-05-06T04:51:37.042Z,49.20
2019-05-06T04:54:06.059Z,50.00
2019-05-06T04:56:35.449Z,50.60
2019-05-06T04:59:06.353Z,50.00
2019-05-06T05:01:55.480Z,50.90
2019-05-06T05:04:32.123Z,51.10
2019-05-06T05:06:56.336Z,51.30
2019-05-06T05:09:25.792Z,51.70
2019-05-06T05:11:56.811Z,51.00
2019-05-06T05:14:28.955Z,50.30
2019-05-06T05:17:06.224Z,50.40
2019-05-06T05:19:36.455Z,49.90
2019-05-06T05:22:05.849Z,49.80
2019-05-06T05:24:36.750Z,49.60
2019-05-06T05:27:06.856Z,49.80
2019-05-06T05:29:36.321Z,49.30
2019-05-06T05:32:06.547Z,49.30
2019-05-06T05:34:39.813Z,49.10
2019-05-06T05:37:07.150Z,49.00
2019-05-06T05:39:36.735Z,48.40
2019-05-06T05:42:07.891Z,48.50
2019-05-06T05:44:43.141Z,48.60
2019-05-06T05:47:12.590Z,49.10
2019-05-06T05:50:03.039Z,48.90
2019-05-06T05:52:33.253Z,48.50
2019-05-06T05:55:03.766Z,49.20
2019-05-06T05:57:33.799Z,49.00
2019-05-06T06:00:04.103Z,48.60
2019-05-06T06:02:34.236Z,48.90
2019-05-06T06:05:04.556Z,48.70
2019-05-06T06:07:34.086Z,48.40
2019-05-06T06:10:09.491Z,48.00
2019-05-06T06:12:38.974Z,48.30
2019-05-06T06:15:12.550Z,47.90
2019-05-06T06:17:44.534Z,47.70
2019-05-06T06:20:24.899Z,47.80
2019-05-06T06:22:55.842Z,48.20
2019-05-06T06:25:25.482Z,48.00
2019-05-06T06:27:55.013Z,48.70
2019-05-06T06:30:28.932Z,48.30
2019-05-06T06:32:59.099Z,48.20
2019-05-06T06:35:32.948Z,47.90
2019-05-06T06:38:04.051Z,47.90
2019-05-06T06:40:33.522Z,48.30
2019-05-06T06:43:04.882Z,47.90
2019-05-06T06:45:35.140Z,47.80
2019-05-06T06:48:04.774Z,47.50
2019-05-06T06:50:34.355Z,47.60
2019-05-06T06:53:03.998Z,47.60
2019-05-06T06:55:35.062Z,47.70
2019-05-06T06:58:08.634Z,47.70
2019-05-06T07:00:55.752Z,47.80
2019-05-06T07:03:32.742Z,47.70
2019-05-06T07:06:03.947Z,47.30
2019-05-06T07:08:37.405Z,47.80
2019-05-06T07:11:04.455Z,47.70
2019-05-06T07:13:34.287Z,47.50
2019-05-06T07:16:03.674Z,46.90
2019-05-06T07:18:33.325Z,47.30
2019-05-06T07:21:07.590Z,47.00
2019-05-06T07:23:37.442Z,47.00
2019-05-06T07:26:06.891Z,46.90
2019-05-06T07:28:36.298Z,47.10
2019-05-06T07:31:18.726Z,46.80
2019-05-06T07:33:36.995Z,47.00
2019-05-06T07:36:06.801Z,47.00
2019-05-06T07:38:36.180Z,46.70
2019-05-06T07:41:10.102Z,46.80
2019-05-06T07:43:57.412Z,46.70
2019-05-06T07:46:42.721Z,46.40
2019-05-06T07:49:12.955Z,46.80
2019-05-06T07:51:42.398Z,46.40
2019-05-06T07:54:12.301Z,47.00
2019-05-06T07:56:42.850Z,46.60
2019-05-06T07:59:12.856Z,46.40
2019-05-06T08:01:43.901Z,46.30
2019-05-06T08:04:13.908Z,46.50
2019-05-06T08:06:43.299Z,46.50
2019-05-06T08:09:13.242Z,46.20
2019-05-06T08:11:42.927Z,46.20
2019-05-06T08:14:13.144Z,46.00
2019-05-06T08:16:44.565Z,46.10
2019-05-06T08:19:14.081Z,46.00
2019-05-06T08:21:45.182Z,46.20
2019-05-06T08:24:14.630Z,46.50
2019-05-06T08:26:44.091Z,44.50
2019-05-06T08:29:15.935Z,45.70
2019-05-06T08:31:44.607Z,46.40
2019-05-06T08:34:14.064Z,45.50
2019-05-06T08:36:45.169Z,45.50
2019-05-06T08:39:14.698Z,45.80
2019-05-06T08:41:44.104Z,45.80
2019-05-06T08:44:13.547Z,45.60
2019-05-06T08:46:43.557Z,45.70
2019-05-06T08:49:13.292Z,45.60
2019-05-06T08:51:56.554Z,45.60
2019-05-06T08:54:43.327Z,45.50
2019-05-06T08:57:13.089Z,45.40
2019-05-06T08:59:42.524Z,46.30
2019-05-06T09:02:13.780Z,45.30
2019-05-06T09:04:42.995Z,45.30
2019-05-06T09:07:12.385Z,46.10
2019-05-06T09:09:42.188Z,45.90
2019-05-06T09:12:13.428Z,46.00
2019-05-06T09:14:43.159Z,45.50
2019-05-06T09:17:12.688Z,45.20
2019-05-06T09:19:42.660Z,45.60
2019-05-06T09:22:12.923Z,45.70
2019-05-06T09:24:42.766Z,45.50
2019-05-06T09:27:14.188Z,45.70
2019-05-06T09:29:48.647Z,45.70
2019-05-06T09:32:19.675Z,45.60
2019-05-06T09:34:56.629Z,45.50
2019-05-06T09:37:26.051Z,45.60
2019-05-06T09:39:55.421Z,45.50
2019-05-06T09:42:24.912Z,46.30
2019-05-06T09:44:54.577Z,45.90
2019-05-06T09:47:42.466Z,45.70
2019-05-06T09:50:14.511Z,45.50
2019-05-06T09:52:43.973Z,46.00
2019-05-06T09:55:15.743Z,45.80
2019-05-06T09:57:55.740Z,46.00
2019-05-06T10:00:27.423Z,46.10
2019-05-06T10:02:56.967Z,46.00
2019-05-06T10:05:26.411Z,46.40
2019-05-06T10:07:55.882Z,46.20
2019-05-06T10:10:25.751Z,46.30
2019-05-06T10:12:55.289Z,45.80
2019-05-06T10:15:25.175Z,46.00
2019-05-06T10:18:12.669Z,45.90
2019-05-06T10:20:45.808Z,45.90
2019-05-06T10:23:15.827Z,46.20
2019-05-06T10:25:45.285Z,46.40
2019-05-06T10:28:17.200Z,45.90
2019-05-06T10:30:46.582Z,46.50
2019-05-06T10:33:20.463Z,45.80
2019-05-06T10:35:49.928Z,45.60
2019-05-06T10:38:44.857Z,45.10
2019-05-06T10:41:17.307Z,45.50
2019-05-06T10:43:52.836Z,45.70
2019-05-06T10:46:23.328Z,45.50
2019-05-06T10:48:53.160Z,45.80
2019-05-06T10:51:28.117Z,46.00
2019-05-06T10:53:57.578Z,45.50
2019-05-06T10:56:28.603Z,46.60
2019-05-06T10:58:59.711Z,46.00
2019-05-06T11:01:36.607Z,46.40
2019-05-06T11:04:06.077Z,46.40
2019-05-06T11:06:35.480Z,46.10
2019-05-06T11:09:08.245Z,46.70
2019-05-06T11:11:38.693Z,46.00
2019-05-06T11:14:08.517Z,46.10
2019-05-06T11:16:37.959Z,46.20
2019-05-06T11:19:07.495Z,46.20
2019-05-06T11:21:36.888Z,46.10
2019-05-06T11:24:06.460Z,46.20
2019-05-06T11:26:36.035Z,46.00
2019-05-06T11:29:07.081Z,45.60
2019-05-06T11:31:38.114Z,46.00
2019-05-06T11:34:15.036Z,45.80
2019-05-06T11:37:02.356Z,45.00
2019-05-06T11:39:32.229Z,45.70
2019-05-06T11:42:23.792Z,45.20
2019-05-06T11:44:32.972Z,45.50
2019-05-06T11:47:03.442Z,45.80
2019-05-06T11:49:33.000Z,46.30
2019-05-06T11:52:02.575Z,46.40
2019-05-06T11:54:33.748Z,45.60
2019-05-06T11:57:04.913Z,45.40
2019-05-06T11:59:35.442Z,46.00
2019-05-06T12:02:12.742Z,45.90
2019-05-06T12:04:42.335Z,46.20
2019-05-06T12:07:15.591Z,46.40
2019-05-06T12:09:43.744Z,46.00
2019-05-06T12:12:13.201Z,45.90
2019-05-06T12:14:43.080Z,45.80
2019-05-06T12:17:12.950Z,46.20
2019-05-06T12:19:43.435Z,46.10
2019-05-06T12:22:14.078Z,46.10
2019-05-06T12:24:43.543Z,46.40
2019-05-06T12:27:14.644Z,46.30
2019-05-06T12:29:44.463Z,46.40
2019-05-06T12:32:22.581Z,46.40
2019-05-06T12:34:52.468Z,46.60
2019-05-06T12:37:24.726Z,46.20
2019-05-06T12:39:55.357Z,45.60
2019-05-06T12:42:26.398Z,46.10
2019-05-06T12:44:57.432Z,46.70
2019-05-06T12:47:34.627Z,46.70
2019-05-06T12:50:05.646Z,47.10
2019-05-06T12:52:35.018Z,47.20
2019-05-06T12:55:18.480Z,47.40
2019-05-06T12:57:37.861Z,47.00
2019-05-06T13:00:08.459Z,47.40
2019-05-06T13:02:38.046Z,47.00
2019-05-06T13:05:07.743Z,47.00
2019-05-06T13:07:38.831Z,47.00
2019-05-06T13:10:08.565Z,47.20
2019-05-06T13:12:42.391Z,47.10
2019-05-06T13:15:13.294Z,47.00
2019-05-06T13:17:43.995Z,47.00
2019-05-06T13:20:14.788Z,47.40
2019-05-06T13:22:46.036Z,47.40
2019-05-06T13:25:16.672Z,47.00
2019-05-06T13:27:46.751Z,47.50
2019-05-06T13:30:16.337Z,48.20
2019-05-06T13:32:47.539Z,48.50
2019-05-06T13:35:16.982Z,48.30
2019-05-06T13:37:46.370Z,48.70
2019-05-06T13:40:16.005Z,49.00
2019-05-06T13:43:03.671Z,49.30
2019-05-06T13:45:35.511Z,49.90
2019-05-06T13:48:06.188Z,50.10
2019-05-06T13:50:38.498Z,50.90
2019-05-06T13:53:11.615Z,50.70
2019-05-06T13:55:39.251Z,50.90
2019-05-06T13:58:08.704Z,49.90
2019-05-06T14:00:38.171Z,50.30
2019-05-06T14:03:07.553Z,49.90
2019-05-06T14:05:36.957Z,50.30
2019-05-06T14:08:06.424Z,50.40
2019-05-06T14:10:35.800Z,50.30
2019-05-06T14:13:05.229Z,49.80
2019-05-06T14:15:34.696Z,50.30
2019-05-06T14:18:04.207Z,50.20
2019-05-06T14:20:33.747Z,50.60
2019-05-06T14:23:03.307Z,50.30
2019-05-06T14:25:34.364Z,50.70
2019-05-06T14:28:08.428Z,50.30
2019-05-06T14:30:42.922Z,50.50
2019-05-06T14:33:15.573Z,50.60
2019-05-06T14:35:45.240Z,50.60
2019-05-06T14:38:14.644Z,50.60
2019-05-06T14:41:04.434Z,50.70
2019-05-06T14:43:47.340Z,50.80
2019-05-06T14:46:17.016Z,51.00
2019-05-06T14:48:46.476Z,51.40
2019-05-06T14:51:16.954Z,51.30
2019-05-06T14:53:46.341Z,51.40
2019-05-06T14:56:23.082Z,51.50
2019-05-06T14:59:05.779Z,51.60
2019-05-06T15:01:36.394Z,51.20
2019-05-06T15:04:05.998Z,51.70
2019-05-06T15:06:35.707Z,51.40
2019-05-06T15:09:07.901Z,51.20
2019-05-06T15:11:37.459Z,51.20
2019-05-06T15:14:06.837Z,51.00
2019-05-06T15:16:36.309Z,50.80
2019-05-06T15:19:06.839Z,50.80
2019-05-06T15:21:38.982Z,50.90
2019-05-06T15:24:08.770Z,51.20
2019-05-06T15:26:38.153Z,50.90
2019-05-06T15:29:09.249Z,51.00
2019-05-06T15:31:45.968Z,51.00
2019-05-06T15:34:22.277Z,51.00
2019-05-06T15:36:53.019Z,51.40
2019-05-06T15:39:23.556Z,51.30
2019-05-06T15:41:53.190Z,51.00
2019-05-06T15:44:23.303Z,51.10
2019-05-06T15:46:52.888Z,51.30
2019-05-06T15:49:22.468Z,51.30
2019-05-06T15:51:52.411Z,51.10
2019-05-06T15:54:23.188Z,51.30
2019-05-06T15:56:53.214Z,51.30
2019-05-06T15:59:23.094Z,51.40
2019-05-06T16:01:53.279Z,51.20
2019-05-06T16:04:23.083Z,51.30
2019-05-06T16:06:53.061Z,51.40
2019-05-06T16:09:23.422Z,51.00
2019-05-06T16:11:53.545Z,50.90
2019-05-06T16:14:23.502Z,51.30
2019-05-06T16:16:53.081Z,51.10
2019-05-06T16:19:22.971Z,51.40
2019-05-06T16:21:53.662Z,51.60
2019-05-06T16:24:24.704Z,51.20
2019-05-06T16:26:54.087Z,51.10
2019-05-06T16:29:35.461Z,51.00
2019-05-06T16:32:09.507Z,51.10
2019-05-06T16:34:38.973Z,51.50
2019-05-06T16:37:08.426Z,51.60
2019-05-06T16:39:37.834Z,51.60
2019-05-06T16:42:07.685Z,51.30
2019-05-06T16:44:37.071Z,51.50
2019-05-06T16:47:06.514Z,51.30
2019-05-06T16:49:35.984Z,51.20
2019-05-06T16:52:05.370Z,51.70
2019-05-06T16:54:34.782Z,51.00
2019-05-06T16:57:14.805Z,50.80
2019-05-06T16:59:44.199Z,50.80
2019-05-06T17:02:15.236Z,51.00
2019-05-06T17:04:49.222Z,50.00
2019-05-06T17:07:18.612Z,51.00
2019-05-06T17:09:47.997Z,50.90
2019-05-06T17:12:17.399Z,50.70
2019-05-06T17:14:46.776Z,50.50
2019-05-06T17:17:16.240Z,50.60
2019-05-06T17:19:45.654Z,50.40
2019-05-06T17:22:15.040Z,50.50
2019-05-06T17:24:44.434Z,50.60
2019-05-06T17:27:13.916Z,50.50
2019-05-06T17:29:44.944Z,50.50
2019-05-06T17:32:35.559Z,50.40
2019-05-06T17:35:06.902Z,50.80
2019-05-06T17:37:46.843Z,50.90
2019-05-06T17:40:18.294Z,51.10
2019-05-06T17:42:47.878Z,52.00
2019-05-06T17:45:35.827Z,51.80
2019-05-06T17:48:19.670Z,51.60
2019-05-06T17:51:08.068Z,51.80
2019-05-06T17:53:42.443Z,51.60
2019-05-06T17:56:12.523Z,51.70
2019-05-06T17:58:42.430Z,51.70
2019-05-06T18:01:13.773Z,51.00
2019-05-06T18:03:43.144Z,50.50
2019-05-06T18:06:14.276Z,50.30
2019-05-06T18:08:43.944Z,50.30
2019-05-06T18:11:13.335Z,50.10
2019-05-06T18:13:42.723Z,50.10
2019-05-06T18:16:13.160Z,49.90
2019-05-06T18:18:42.739Z,50.20
2019-05-06T18:21:12.541Z,51.00
2019-05-06T18:23:42.009Z,50.20
2019-05-06T18:26:12.576Z,49.40
2019-05-06T18:28:43.061Z,50.60
2019-05-06T18:31:13.765Z,51.20
2019-05-06T18:33:43.279Z,51.60
2019-05-06T18:36:13.903Z,51.80
2019-05-06T18:38:43.799Z,51.90
2019-05-06T18:41:13.436Z,51.70
2019-05-06T18:43:42.834Z,51.80
2019-05-06T18:46:12.369Z,50.90
2019-05-06T18:49:02.523Z,51.30
2019-05-06T18:51:32.215Z,50.40
2019-05-06T18:54:03.078Z,51.10
2019-05-06T18:56:32.670Z,51.40
2019-05-06T18:59:02.848Z,51.80
2019-05-06T19:01:33.283Z,51.90
2019-05-06T19:04:04.560Z,51.20
2019-05-06T19:06:34.024Z,51.40
2019-05-06T19:09:11.411Z,51.60
2019-05-06T19:11:40.804Z,51.50
2019-05-06T19:14:12.563Z,51.30
2019-05-06T19:16:49.834Z,51.20
2019-05-06T19:19:12.522Z,51.00
2019-05-06T19:21:42.843Z,51.00
2019-05-06T19:24:12.405Z,51.00
2019-05-06T19:26:42.925Z,51.00
2019-05-06T19:29:12.523Z,50.80
2019-05-06T19:31:44.779Z,50.80
2019-05-06T19:34:14.071Z,50.70
2019-05-06T19:36:43.488Z,50.90
2019-05-06T19:39:12.872Z,50.80
2019-05-06T19:41:42.306Z,50.70
2019-05-06T19:44:12.890Z,50.70
2019-05-06T19:46:42.543Z,50.60
2019-05-06T19:49:12.246Z,50.80
2019-05-06T19:51:42.798Z,51.00
2019-05-06T19:54:12.737Z,51.50
2019-05-06T19:56:42.413Z,51.00
2019-05-06T19:59:12.912Z,51.80
2019-05-06T20:01:43.064Z,52.30
2019-05-06T20:04:13.302Z,51.90
2019-05-06T20:06:52.365Z,52.10
2019-05-06T20:09:24.205Z,51.80
2019-05-06T20:12:12.280Z,51.90
2019-05-06T20:14:41.897Z,51.80
2019-05-06T20:17:12.916Z,52.20
2019-05-06T20:19:42.730Z,52.20
2019-05-06T20:22:13.035Z,52.30
2019-05-06T20:24:42.747Z,52.40
2019-05-06T20:27:13.264Z,52.40
2019-05-06T20:29:43.605Z,52.40
2019-05-06T20:32:13.139Z,52.60
2019-05-06T20:34:42.966Z,52.50
2019-05-06T20:37:13.564Z,52.30
2019-05-06T20:39:43.458Z,52.00
2019-05-06T20:42:22.235Z,52.10
2019-05-06T20:44:52.483Z,52.50
2019-05-06T20:47:39.080Z,52.10
2019-05-06T20:50:08.907Z,52.10
2019-05-06T20:52:39.450Z,52.20
2019-05-06T20:55:12.498Z,52.00
2019-05-06T20:57:42.216Z,51.70
2019-05-06T21:00:12.862Z,52.00
2019-05-06T21:02:42.734Z,52.20
2019-05-06T21:05:13.905Z,52.10
2019-05-06T21:07:43.506Z,52.10
2019-05-06T21:10:14.355Z,51.80
2019-05-06T21:12:43.747Z,51.90
2019-05-06T21:15:13.678Z,52.00
2019-05-06T21:17:43.131Z,51.90
2019-05-06T21:20:14.163Z,52.10
2019-05-06T21:22:43.716Z,52.50
2019-05-06T21:25:13.321Z,51.70
2019-05-06T21:27:42.779Z,51.70
2019-05-06T21:30:13.253Z,51.90
2019-05-06T21:32:42.883Z,52.00
2019-05-06T21:35:12.707Z,52.00
2019-05-06T21:37:42.491Z,51.70
2019-05-06T21:40:12.456Z,51.90
2019-05-06T21:42:43.109Z,51.90
2019-05-06T21:45:13.160Z,52.00
2019-05-06T21:47:46.136Z,51.90
2019-05-06T21:50:13.976Z,51.80
2019-05-06T21:52:43.376Z,51.50
2019-05-06T21:55:13.462Z,51.80
2019-05-06T21:57:43.014Z,51.60
2019-05-06T22:00:16.786Z,51.90
2019-05-06T22:02:46.401Z,51.70
2019-05-06T22:05:15.918Z,51.60
2019-05-06T22:07:59.082Z,51.80
2019-05-06T22:10:28.534Z,51.50
2019-05-06T22:12:57.923Z,51.40
2019-05-06T22:15:27.375Z,51.60
2019-05-06T22:17:56.763Z,51.60
2019-05-06T22:20:26.141Z,51.50
2019-05-06T22:22:55.530Z,51.30
2019-05-06T22:25:25.311Z,51.30
2019-05-06T22:27:54.680Z,51.20
2019-05-06T22:30:24.065Z,51.40
2019-05-06T22:32:53.446Z,52.30
2019-05-06T22:35:23.166Z,51.50
2019-05-06T22:37:53.063Z,51.50
2019-05-06T22:40:23.834Z,51.60
2019-05-06T22:42:53.530Z,51.70
2019-05-06T22:45:22.907Z,51.80
2019-05-06T22:47:53.912Z,51.70
2019-05-06T22:50:23.299Z,51.80
2019-05-06T22:52:52.924Z,51.90
2019-05-06T22:55:22.424Z,51.90
2019-05-06T22:57:52.928Z,51.70
2019-05-06T23:00:24.163Z,51.80
2019-05-06T23:03:02.301Z,51.70
2019-05-06T23:05:32.629Z,51.70
2019-05-06T23:08:02.787Z,51.70
2019-05-06T23:10:33.684Z,51.80
2019-05-06T23:13:03.359Z,51.60
2019-05-06T23:15:34.191Z,51.80
2019-05-06T23:18:03.868Z,51.70
2019-05-06T23:20:33.255Z,51.70
2019-05-06T23:23:04.739Z,51.70
2019-05-06T23:25:33.781Z,51.80
2019-05-06T23:28:03.940Z,51.70
2019-05-06T23:30:33.586Z,51.70
2019-05-06T23:33:03.083Z,51.70
2019-05-06T23:35:32.470Z,51.60
2019-05-06T23:38:38.519Z,51.70
2019-05-06T23:41:44.479Z,51.70
2019-05-06T23:44:50.227Z,51.90
2019-05-06T23:47:55.995Z,51.90
2019-05-06T23:51:01.965Z,52.10
2019-05-06T23:54:07.798Z,52.20
2019-05-06T23:56:42.748Z,52.50
2019-05-06T23:59:18.147Z,52.30
